Time;durP1;ratioP1;P1;durP2;ratioP2;P2;SDS_P1;SDS_P2;PMS_P1;PMS_P2;Temp;Humidity;BMP_temperature;BMP_pressure;BME280_temperature;BME280_humidity;BME280_pressure;Samples;Min_cycle;Max_cycle;Signal;HPM_P1;HPM_P2
2021/04/22 00:00:43;;;;;;;9.30;5.60;;;11.10;95.60;;;;;;5068418;28;20451;-51
2021/04/22 00:03:11;;;;;;;11.47;6.13;;;11.10;95.60;;;;;;5070806;28;20457;-51
2021/04/22 00:05:40;;;;;;;7.90;5.93;;;11.00;95.70;;;;;;5058897;28;20990;-52
2021/04/22 00:08:08;;;;;;;7.47;6.00;;;11.10;96.60;;;;;;5051344;28;20933;-51
2021/04/22 00:10:37;;;;;;;7.73;6.37;;;11.20;96.70;;;;;;5063422;28;20455;-51
2021/04/22 00:13:04;;;;;;;7.53;6.00;;;11.10;96.10;;;;;;5053121;28;20444;-51
2021/04/22 00:15:31;;;;;;;6.87;5.40;;;11.10;95.50;;;;;;5069367;28;20950;-51
2021/04/22 00:17:58;;;;;;;7.90;5.77;;;11.00;95.10;;;;;;5071422;28;20486;-50
2021/04/22 00:20:26;;;;;;;7.90;5.90;;;11.10;95.40;;;;;;5052871;28;20872;-51
2021/04/22 00:22:53;;;;;;;7.13;5.63;;;10.90;96.20;;;;;;5051580;28;20446;-51
2021/04/22 00:25:19;;;;;;;6.37;5.60;;;10.90;95.90;;;;;;5051507;28;20467;-51
2021/04/22 00:27:46;;;;;;;7.77;5.80;;;10.90;95.90;;;;;;5051458;28;20448;-51
2021/04/22 00:30:17;;;;;;;7.57;6.37;;;11.00;96.00;;;;;;5051407;28;20945;-51
2021/04/22 00:32:45;;;;;;;8.60;6.93;;;11.00;96.20;;;;;;5058531;28;20444;-50
2021/04/22 00:35:13;;;;;;;9.77;6.33;;;10.70;96.50;;;;;;5051376;28;20475;-49
2021/04/22 00:37:43;;;;;;;7.20;5.83;;;10.60;96.80;;;;;;5051560;28;20483;-52
2021/04/22 00:40:14;;;;;;;7.07;6.10;;;10.60;97.10;;;;;;5064801;28;20451;-50
2021/04/22 00:42:40;;;;;;;11.90;6.70;;;10.80;97.10;;;;;;5071338;28;20480;-49
2021/04/22 00:45:08;;;;;;;7.97;6.17;;;10.80;97.40;;;;;;5067066;28;20467;-51
2021/04/22 00:47:40;;;;;;;9.43;6.43;;;10.90;97.50;;;;;;5051334;28;20447;-50
2021/04/22 00:50:09;;;;;;;8.47;5.73;;;10.90;97.60;;;;;;5055214;28;20443;-50
2021/04/22 00:52:37;;;;;;;7.13;5.20;;;10.90;97.30;;;;;;5066819;28;20447;-50
2021/04/22 00:55:04;;;;;;;8.40;5.83;;;10.90;97.60;;;;;;5071196;28;20474;-51
2021/04/22 00:57:30;;;;;;;7.73;5.80;;;10.90;97.80;;;;;;5070914;28;20479;-50
2021/04/22 00:59:57;;;;;;;7.27;5.63;;;10.90;98.20;;;;;;5071116;28;20450;-50
2021/04/22 01:02:24;;;;;;;7.33;6.10;;;10.90;98.10;;;;;;5059392;28;20452;-51
2021/04/22 01:04:51;;;;;;;9.03;6.97;;;10.80;98.00;;;;;;5051381;28;20532;-50
2021/04/22 01:07:19;;;;;;;10.13;6.67;;;10.70;98.10;;;;;;5052157;28;20444;-50
2021/04/22 01:09:45;;;;;;;8.47;6.43;;;10.50;98.60;;;;;;5050976;28;20808;-53
2021/04/22 01:12:13;;;;;;;11.93;7.40;;;10.50;99.00;;;;;;5050917;28;20867;-52
2021/04/22 01:14:40;;;;;;;10.80;7.70;;;10.60;99.00;;;;;;5062580;28;20471;-50
2021/04/22 01:17:07;;;;;;;8.67;7.40;;;10.40;98.80;;;;;;5074882;28;20500;-50
2021/04/22 01:19:34;;;;;;;10.60;7.10;;;10.40;99.10;;;;;;5057094;28;20447;-51
2021/04/22 01:22:02;;;;;;;12.90;7.50;;;10.30;99.30;;;;;;5054590;28;20824;-50
2021/04/22 01:24:28;;;;;;;10.57;7.53;;;10.30;99.50;;;;;;5054510;28;20470;-51
2021/04/22 01:26:55;;;;;;;9.90;7.40;;;10.30;99.60;;;;;;5054485;28;20458;-50
2021/04/22 01:29:21;;;;;;;9.17;7.13;;;10.40;99.70;;;;;;5054214;28;20451;-50
2021/04/22 01:31:48;;;;;;;9.30;7.53;;;10.40;99.80;;;;;;5054582;28;20458;-50
2021/04/22 01:34:14;;;;;;;9.03;7.47;;;10.40;99.80;;;;;;5067560;28;20468;-51
2021/04/22 01:36:43;;;;;;;10.30;7.73;;;10.40;99.70;;;;;;5066935;28;20455;-51
2021/04/22 01:39:12;;;;;;;11.00;8.00;;;10.40;99.90;;;;;;5058704;28;20574;-51
2021/04/22 01:41:39;;;;;;;10.57;7.83;;;10.30;99.90;;;;;;5054362;28;20478;-50
2021/04/22 01:44:06;;;;;;;9.77;7.20;;;10.10;99.90;;;;;;5065370;28;20481;-50
2021/04/22 01:46:33;;;;;;;9.03;6.90;;;10.10;99.90;;;;;;5056476;28;20458;-51
2021/04/22 01:49:00;;;;;;;8.80;7.00;;;10.20;99.90;;;;;;5073837;28;20808;-51
2021/04/22 01:51:27;;;;;;;8.60;6.93;;;10.20;99.90;;;;;;5072439;28;20449;-50
2021/04/22 01:53:53;;;;;;;8.50;6.70;;;10.30;99.90;;;;;;5073897;28;20462;-50
2021/04/22 01:56:21;;;;;;;11.93;7.33;;;10.10;99.90;;;;;;5072506;28;20476;-51
2021/04/22 01:58:48;;;;;;;10.40;8.00;;;10.00;99.90;;;;;;5073721;28;20527;-50
2021/04/22 02:01:15;;;;;;;10.33;7.50;;;10.00;99.90;;;;;;5066229;28;20450;-51
2021/04/22 02:03:41;;;;;;;10.50;7.30;;;9.80;99.90;;;;;;5062930;28;20473;-52
2021/04/22 02:06:10;;;;;;;9.07;7.20;;;9.80;99.90;;;;;;5074301;28;20453;-51
2021/04/22 02:08:37;;;;;;;8.37;6.67;;;9.80;99.90;;;;;;5064716;28;21291;-50
2021/04/22 02:11:04;;;;;;;9.17;6.70;;;9.80;99.90;;;;;;5053928;28;20451;-51
2021/04/22 02:13:32;;;;;;;9.90;7.30;;;9.80;99.90;;;;;;5057731;28;20505;-50
2021/04/22 02:15:59;;;;;;;11.77;7.07;;;9.80;99.90;;;;;;5068965;28;20452;-50
2021/04/22 02:18:26;;;;;;;10.53;6.97;;;9.70;99.90;;;;;;5054279;28;21015;-50
2021/04/22 02:20:53;;;;;;;9.90;7.10;;;9.50;99.90;;;;;;5053549;28;20865;-51
2021/04/22 02:23:22;;;;;;;10.00;7.27;;;9.50;99.90;;;;;;5054815;28;20455;-51
2021/04/22 02:25:48;;;;;;;13.67;8.00;;;9.50;99.90;;;;;;5065576;28;20452;-51
2021/04/22 02:28:15;;;;;;;8.97;6.80;;;9.40;99.90;;;;;;5064103;28;20509;-50
2021/04/22 02:30:44;;;;;;;9.17;7.00;;;9.50;99.90;;;;;;5054559;28;20446;-51
2021/04/22 02:33:14;;;;;;;9.87;6.93;;;9.50;99.90;;;;;;5053581;28;20508;-51
2021/04/22 02:35:43;;;;;;;9.00;7.03;;;9.60;99.90;;;;;;5072894;28;20837;-50
2021/04/22 02:38:12;;;;;;;9.43;7.03;;;9.70;99.90;;;;;;5072948;28;20485;-51
2021/04/22 02:40:41;;;;;;;7.63;6.03;;;9.70;99.90;;;;;;5067180;28;20481;-50
2021/04/22 02:43:12;;;;;;;8.53;6.57;;;9.70;99.90;;;;;;5070767;28;20485;-50
2021/04/22 02:45:41;;;;;;;8.33;6.50;;;9.60;99.90;;;;;;5072943;28;20458;-51
2021/04/22 02:48:09;;;;;;;9.50;7.00;;;9.60;99.90;;;;;;5065713;28;20446;-50
2021/04/22 02:50:38;;;;;;;9.10;6.00;;;9.50;99.90;;;;;;5063090;28;21188;-51
2021/04/22 02:53:06;;;;;;;9.97;6.53;;;9.50;99.90;;;;;;5061527;28;20448;-50
2021/04/22 02:55:32;;;;;;;10.90;7.10;;;9.60;99.90;;;;;;5072250;28;20882;-50
2021/04/22 02:57:59;;;;;;;8.57;6.30;;;9.60;99.90;;;;;;5058449;28;20476;-51
2021/04/22 03:00:26;;;;;;;9.23;6.93;;;9.50;99.90;;;;;;5058779;28;20456;-49
2021/04/22 03:02:52;;;;;;;7.97;5.63;;;9.40;99.90;;;;;;5072904;28;20454;-50
2021/04/22 03:05:20;;;;;;;8.77;6.47;;;9.50;99.90;;;;;;5070502;28;20474;-51
2021/04/22 03:07:46;;;;;;;7.30;6.20;;;9.60;99.90;;;;;;5060857;28;20449;-50
2021/04/22 03:10:16;;;;;;;7.90;6.27;;;9.50;99.90;;;;;;5053696;28;20450;-51
2021/04/22 03:12:46;;;;;;;9.40;6.30;;;9.50;99.90;;;;;;5058364;28;20840;-50
2021/04/22 03:15:14;;;;;;;9.07;6.30;;;9.50;99.90;;;;;;5068566;28;20484;-50
2021/04/22 03:17:44;;;;;;;9.37;6.70;;;9.40;99.90;;;;;;5062293;28;20995;-50
2021/04/22 03:20:12;;;;;;;9.20;6.27;;;9.30;99.90;;;;;;5053664;28;20454;-51
2021/04/22 03:22:40;;;;;;;10.57;6.60;;;9.30;99.90;;;;;;5052421;28;20463;-50
2021/04/22 03:25:09;;;;;;;7.73;6.33;;;9.30;99.90;;;;;;5053330;28;20483;-50
2021/04/22 03:27:35;;;;;;;7.33;5.87;;;9.40;99.90;;;;;;5053128;28;20464;-51
2021/04/22 03:30:03;;;;;;;8.47;6.30;;;9.40;99.90;;;;;;5059651;28;20449;-50
2021/04/22 03:32:30;;;;;;;7.80;6.07;;;9.40;99.90;;;;;;5072063;28;20457;-51
2021/04/22 03:34:56;;;;;;;7.63;6.20;;;9.30;99.90;;;;;;5064643;28;20473;-51
2021/04/22 03:37:23;;;;;;;8.60;6.40;;;9.20;99.90;;;;;;5051844;28;20534;-51
2021/04/22 03:39:50;;;;;;;8.10;6.37;;;9.20;99.90;;;;;;5063220;28;20450;-50
2021/04/22 03:42:17;;;;;;;7.70;5.77;;;9.20;99.90;;;;;;5071893;28;20504;-51
2021/04/22 03:44:44;;;;;;;6.77;5.70;;;9.40;99.90;;;;;;5072107;28;20477;-51
2021/04/22 03:47:11;;;;;;;7.80;6.07;;;9.30;99.90;;;;;;5060171;28;20519;-51
2021/04/22 03:49:38;;;;;;;8.73;6.00;;;9.30;99.90;;;;;;5065791;28;20461;-51
2021/04/22 03:52:05;;;;;;;8.57;5.90;;;9.30;99.90;;;;;;5051912;28;20939;-51
2021/04/22 03:54:31;;;;;;;7.63;5.70;;;9.30;99.90;;;;;;5051653;28;20967;-51
2021/04/22 03:56:59;;;;;;;8.40;6.23;;;9.30;99.90;;;;;;5052762;28;20508;-50
2021/04/22 03:59:26;;;;;;;7.40;6.07;;;9.40;99.90;;;;;;5053780;28;20443;-50
2021/04/22 04:01:53;;;;;;;8.30;6.70;;;9.30;99.90;;;;;;5071352;28;20446;-51
2021/04/22 04:04:19;;;;;;;14.83;6.70;;;9.40;99.90;;;;;;5058286;28;20536;-51
2021/04/22 04:06:46;;;;;;;7.63;5.93;;;9.40;99.90;;;;;;5051719;28;20474;-50
2021/04/22 04:09:12;;;;;;;8.50;6.10;;;9.50;99.90;;;;;;5052391;28;20514;-50
2021/04/22 04:11:39;;;;;;;8.63;6.30;;;9.80;99.90;;;;;;5055111;28;20445;-50
2021/04/22 04:14:06;;;;;;;8.03;6.53;;;9.60;99.90;;;;;;5065008;28;21010;-51
2021/04/22 04:16:33;;;;;;;8.40;6.40;;;9.40;99.90;;;;;;5051633;28;20448;-51
2021/04/22 04:18:59;;;;;;;13.63;7.20;;;9.30;99.90;;;;;;5051583;28;20482;-51
2021/04/22 04:21:26;;;;;;;8.43;6.13;;;9.20;99.90;;;;;;5056559;28;20462;-50
2021/04/22 04:23:52;;;;;;;14.60;6.00;;;9.10;99.90;;;;;;5053083;28;20525;-50
2021/04/22 04:26:19;;;;;;;8.30;5.90;;;9.20;99.90;;;;;;5067078;28;20471;-50
2021/04/22 04:28:46;;;;;;;12.60;6.10;;;9.10;99.90;;;;;;5058374;28;20450;-50
2021/04/22 04:31:14;;;;;;;10.50;5.67;;;9.20;99.90;;;;;;5051892;28;20455;-50
2021/04/22 04:33:40;;;;;;;8.23;6.03;;;9.20;99.90;;;;;;5068835;28;20491;-50
2021/04/22 04:36:08;;;;;;;7.33;5.83;;;9.20;99.90;;;;;;5052048;28;20504;-50
2021/04/22 04:38:34;;;;;;;7.20;5.97;;;9.10;99.90;;;;;;5056928;28;20535;-51
2021/04/22 04:41:01;;;;;;;8.87;6.43;;;8.80;99.90;;;;;;5066782;28;20452;-50
2021/04/22 04:43:27;;;;;;;8.10;6.03;;;8.80;99.90;;;;;;5071238;28;20483;-50
2021/04/22 04:45:54;;;;;;;10.70;6.70;;;8.80;99.90;;;;;;5064123;28;20446;-51
2021/04/22 04:48:21;;;;;;;8.27;6.00;;;8.80;99.90;;;;;;5070464;28;20457;-50
2021/04/22 04:50:48;;;;;;;9.83;6.73;;;8.80;99.90;;;;;;5073342;28;20480;-50
2021/04/22 04:53:15;;;;;;;8.37;6.33;;;8.90;99.90;;;;;;5063159;28;21015;-50
2021/04/22 04:55:41;;;;;;;8.83;6.10;;;9.10;99.90;;;;;;5075134;28;20457;-50
2021/04/22 04:58:08;;;;;;;9.57;6.23;;;9.10;99.90;;;;;;5074711;28;20476;-50
2021/04/22 05:00:34;;;;;;;9.73;6.03;;;9.10;99.90;;;;;;5065001;28;20883;-50
2021/04/22 05:03:01;;;;;;;8.60;5.87;;;9.20;99.90;;;;;;5066625;28;20473;-50
2021/04/22 05:05:29;;;;;;;11.70;6.67;;;9.10;99.90;;;;;;5068812;28;20474;-50
2021/04/22 05:07:55;;;;;;;16.90;8.23;;;9.10;99.90;;;;;;5068323;28;20446;-50
2021/04/22 05:10:21;;;;;;;9.00;6.60;;;9.00;99.90;;;;;;5054867;28;20453;-50
2021/04/22 05:12:48;;;;;;;10.33;6.80;;;9.00;99.90;;;;;;5054945;28;20453;-50
2021/04/22 05:15:15;;;;;;;8.37;6.20;;;9.00;99.90;;;;;;5092117;22;21045;-52
2021/04/22 05:17:42;;;;;;;11.50;7.10;;;9.10;99.90;;;;;;5073933;28;20862;-52
2021/04/22 05:20:09;;;;;;;19.07;7.77;;;9.10;99.90;;;;;;5073660;28;20519;-52
2021/04/22 05:22:37;;;;;;;13.23;7.13;;;9.20;99.90;;;;;;5060768;28;20458;-52
2021/04/22 05:25:04;;;;;;;9.50;7.00;;;9.30;99.90;;;;;;5074247;28;20473;-52
2021/04/22 05:27:31;;;;;;;9.43;7.37;;;9.40;99.90;;;;;;5074539;28;20449;-52
2021/04/22 05:29:57;;;;;;;8.63;6.60;;;9.30;99.90;;;;;;5074239;28;20455;-52
2021/04/22 05:32:24;;;;;;;11.57;6.60;;;9.40;99.90;;;;;;5074396;28;20868;-53
2021/04/22 05:34:50;;;;;;;10.20;5.80;;;9.60;99.90;;;;;;5074108;28;20492;-52
2021/04/22 05:37:17;;;;;;;10.67;5.80;;;9.90;99.90;;;;;;5073883;28;20947;-52
2021/04/22 05:39:44;;;;;;;12.03;5.90;;;10.30;99.90;;;;;;5074281;28;20443;-53
2021/04/22 05:42:11;;;;;;;9.23;6.33;;;10.60;99.90;;;;;;5063530;28;20547;-52
2021/04/22 05:44:38;;;;;;;9.70;6.43;;;10.60;99.90;;;;;;5074309;28;20478;-52
2021/04/22 05:47:04;;;;;;;8.83;6.30;;;10.70;99.90;;;;;;5072741;28;20451;-52
2021/04/22 05:49:31;;;;;;;11.17;7.77;;;11.00;99.90;;;;;;5071982;28;21005;-51
2021/04/22 05:51:57;;;;;;;10.17;7.17;;;11.00;99.90;;;;;;5069484;28;20952;-52
2021/04/22 05:54:24;;;;;;;18.90;8.40;;;11.10;99.90;;;;;;5073160;28;20520;-52
2021/04/22 05:56:51;;;;;;;15.60;10.53;;;11.30;99.90;;;;;;5069405;28;20453;-52
2021/04/22 05:59:18;;;;;;;12.77;10.07;;;11.20;99.90;;;;;;5070959;28;21100;-52
2021/04/22 06:01:45;;;;;;;11.93;8.30;;;11.60;99.90;;;;;;5077332;28;20474;-53
2021/04/22 06:04:12;;;;;;;10.50;6.80;;;11.90;99.90;;;;;;5074096;28;20463;-53
2021/04/22 06:06:38;;;;;;;13.53;6.07;;;12.20;99.90;;;;;;5073952;28;20505;-52
2021/04/22 06:09:06;;;;;;;11.97;6.40;;;12.20;99.90;;;;;;5073960;28;20446;-52
2021/04/22 06:11:33;;;;;;;8.10;5.63;;;12.30;99.90;;;;;;5075630;28;20454;-53
2021/04/22 06:14:00;;;;;;;10.97;5.70;;;12.80;99.90;;;;;;5074871;28;20559;-53
2021/04/22 06:16:27;;;;;;;8.50;6.10;;;13.30;99.90;;;;;;5076607;28;20451;-52
2021/04/22 06:18:53;;;;;;;9.03;6.37;;;13.70;99.20;;;;;;5076070;28;20474;-52
2021/04/22 06:21:20;;;;;;;7.07;5.67;;;14.10;98.90;;;;;;5076254;28;20544;-52
2021/04/22 06:23:46;;;;;;;10.47;6.53;;;14.30;98.00;;;;;;5076178;28;20447;-52
2021/04/22 06:26:13;;;;;;;8.00;6.17;;;13.60;98.20;;;;;;5076230;28;20449;-52
2021/04/22 06:28:40;;;;;;;9.57;6.40;;;13.10;99.60;;;;;;5070400;28;20432;-52
2021/04/22 06:31:07;;;;;;;7.20;5.77;;;13.10;99.90;;;;;;5066995;28;21088;-52
2021/04/22 06:33:33;;;;;;;10.57;5.90;;;13.40;99.30;;;;;;5064029;28;20461;-52
2021/04/22 06:36:00;;;;;;;7.50;5.90;;;13.30;99.40;;;;;;5075924;28;20451;-52
2021/04/22 06:38:26;;;;;;;9.87;6.10;;;13.80;98.60;;;;;;5075738;28;20478;-51
2021/04/22 06:40:53;;;;;;;7.73;5.63;;;14.30;98.60;;;;;;5074854;28;20512;-52
2021/04/22 06:43:20;;;;;;;12.63;6.80;;;14.80;97.50;;;;;;5073308;28;20447;-52
2021/04/22 06:45:46;;;;;;;6.57;5.10;;;15.50;96.00;;;;;;5075441;28;20523;-52
2021/04/22 06:48:15;;;;;;;8.10;5.97;;;16.10;95.60;;;;;;5076750;28;20488;-51
2021/04/22 06:50:42;;;;;;;8.50;6.07;;;16.40;95.50;;;;;;5062391;28;20490;-52
2021/04/22 06:53:09;;;;;;;9.10;5.87;;;16.50;96.00;;;;;;5071643;28;20443;-52
2021/04/22 06:55:36;;;;;;;7.10;6.23;;;16.20;94.70;;;;;;5072799;28;20471;-52
2021/04/22 06:58:04;;;;;;;9.90;6.30;;;15.50;94.80;;;;;;5072877;28;20489;-52
2021/04/22 07:00:33;;;;;;;8.43;6.13;;;15.20;96.50;;;;;;5073014;28;20447;-52
2021/04/22 07:02:59;;;;;;;7.87;5.10;;;14.60;97.10;;;;;;5072724;28;20447;-52
2021/04/22 07:05:27;;;;;;;4.93;4.50;;;14.50;96.40;;;;;;5072652;28;20972;-52
2021/04/22 07:07:54;;;;;;;8.80;5.73;;;13.90;96.60;;;;;;5072408;28;20849;-52
2021/04/22 07:10:21;;;;;;;7.50;5.93;;;13.80;97.30;;;;;;5061076;28;20934;-52
2021/04/22 07:12:51;;;;;;;7.67;5.97;;;13.70;98.40;;;;;;5052544;28;20456;-52
2021/04/22 07:15:18;;;;;;;6.82;6.13;;;13.80;98.70;;;;;;5067482;28;20522;-52
2021/04/22 07:17:45;;;;;;;12.90;5.87;;;13.90;98.80;;;;;;5083281;28;20899;-52
2021/04/22 07:20:17;;;;;;;7.93;6.63;;;14.00;97.40;;;;;;5070485;28;20438;-52
2021/04/22 07:22:44;;;;;;;13.13;6.53;;;14.10;97.70;;;;;;5079750;28;20531;-53
2021/04/22 07:25:13;;;;;;;7.83;5.83;;;14.30;96.70;;;;;;5071864;28;20478;-52
2021/04/22 07:27:40;;;;;;;7.97;6.47;;;14.60;96.20;;;;;;5091255;28;20450;-52
2021/04/22 07:30:09;;;;;;;8.60;5.37;;;14.90;96.50;;;;;;5088190;28;20446;-52
2021/04/22 07:32:36;;;;;;;8.13;5.57;;;15.00;95.70;;;;;;5052215;28;20478;-52
2021/04/22 07:35:04;;;;;;;8.60;5.63;;;15.30;96.30;;;;;;5060729;28;20467;-52
2021/04/22 07:37:32;;;;;;;7.80;6.17;;;15.60;96.50;;;;;;5071480;28;20458;-52
2021/04/22 07:39:59;;;;;;;7.63;5.80;;;15.70;95.90;;;;;;5092038;28;20515;-52
2021/04/22 07:42:26;;;;;;;6.80;6.20;;;16.10;95.70;;;;;;5082133;28;20450;-53
2021/04/22 07:44:53;;;;;;;9.00;5.87;;;16.60;95.20;;;;;;5071750;28;21007;-52
2021/04/22 07:47:19;;;;;;;7.50;5.60;;;17.20;95.90;;;;;;5071745;28;20502;-53
2021/04/22 07:49:46;;;;;;;6.03;5.43;;;17.60;92.20;;;;;;5070323;28;20466;-53
2021/04/22 07:52:14;;;;;;;9.23;6.80;;;17.70;92.90;;;;;;5081714;28;20450;-52
2021/04/22 07:54:42;;;;;;;8.37;5.90;;;17.90;91.50;;;;;;5085649;28;20481;-53
2021/04/22 07:57:10;;;;;;;8.37;5.73;;;18.40;92.50;;;;;;5071561;28;20538;-52
2021/04/22 07:59:36;;;;;;;7.70;6.37;;;18.30;91.90;;;;;;5071109;28;20482;-52
2021/04/22 08:02:06;;;;;;;6.07;5.47;;;18.10;90.50;;;;;;5071608;28;20451;-52
2021/04/22 08:04:33;;;;;;;6.63;5.93;;;17.50;91.50;;;;;;5071284;28;20536;-53
2021/04/22 08:06:59;;;;;;;8.83;5.93;;;17.30;91.50;;;;;;5071226;28;20457;-52
2021/04/22 08:09:26;;;;;;;9.43;6.30;;;16.90;91.80;;;;;;5071370;28;20450;-52
2021/04/22 08:11:52;;;;;;;10.70;6.40;;;17.20;91.30;;;;;;5071465;28;20561;-53
2021/04/22 08:14:20;;;;;;;6.93;6.23;;;18.00;91.40;;;;;;5071236;28;20988;-52
2021/04/22 08:16:46;;;;;;;6.63;5.90;;;18.70;91.90;;;;;;5071041;28;20482;-53
2021/04/22 08:19:13;;;;;;;5.77;5.17;;;19.40;92.10;;;;;;5070884;28;20474;-53
2021/04/22 08:21:39;;;;;;;8.10;6.30;;;20.20;88.70;;;;;;5073503;28;20446;-53
2021/04/22 08:24:07;;;;;;;7.77;6.23;;;20.30;85.90;;;;;;5090691;28;20469;-53
2021/04/22 08:26:34;;;;;;;7.30;5.60;;;20.30;88.20;;;;;;5091596;28;20939;-53
2021/04/22 08:29:00;;;;;;;6.57;5.87;;;20.40;90.70;;;;;;5091157;28;20446;-53
2021/04/22 08:31:29;;;;;;;9.00;5.90;;;20.40;86.60;;;;;;5091326;28;20454;-54
2021/04/22 08:33:59;;;;;;;6.73;6.03;;;21.00;83.60;;;;;;5088455;28;20910;-53
2021/04/22 08:36:26;;;;;;;8.10;5.33;;;20.00;82.40;;;;;;5071373;28;20924;-53
2021/04/22 08:38:53;;;;;;;10.90;5.70;;;20.00;81.20;;;;;;5070688;28;20478;-53
2021/04/22 08:41:20;;;;;;;6.70;6.03;;;19.90;84.20;;;;;;5071233;28;20442;-53
2021/04/22 08:43:48;;;;;;;6.30;5.70;;;20.10;87.90;;;;;;5071157;28;20447;-53
2021/04/22 08:46:15;;;;;;;7.63;5.60;;;20.60;86.00;;;;;;5070865;28;20447;-53
2021/04/22 08:48:42;;;;;;;6.00;5.40;;;20.80;83.10;;;;;;5071100;28;20458;-53
2021/04/22 08:51:11;;;;;;;6.90;5.97;;;20.50;83.60;;;;;;5071267;28;20465;-53
2021/04/22 08:53:40;;;;;;;7.57;5.87;;;21.00;81.80;;;;;;5070507;28;20458;-53
2021/04/22 08:56:09;;;;;;;5.93;4.93;;;21.20;85.50;;;;;;5070816;28;20952;-53
2021/04/22 08:58:35;;;;;;;8.93;7.33;;;21.40;84.20;;;;;;5070557;28;20859;-53
2021/04/22 09:01:06;;;;;;;9.13;7.93;;;21.30;85.80;;;;;;5070648;28;20681;-53
2021/04/22 09:03:34;;;;;;;8.70;7.90;;;20.50;90.80;;;;;;5058891;28;20447;-53
2021/04/22 09:06:01;;;;;;;9.70;7.90;;;19.50;91.90;;;;;;5070876;28;20861;-51
2021/04/22 09:08:35;;;;;;;10.17;8.33;;;18.90;92.40;;;;;;5070299;28;20977;-53
2021/04/22 09:11:01;;;;;;;10.53;7.93;;;19.40;93.00;;;;;;5075587;28;20475;-53
2021/04/22 09:13:28;;;;;;;12.23;8.20;;;19.20;92.90;;;;;;5071165;28;20447;-53
2021/04/22 09:16:02;;;;;;;9.57;8.57;;;18.80;91.50;;;;;;5070313;28;20484;-53
2021/04/22 09:18:29;;;;;;;9.53;7.47;;;18.40;93.70;;;;;;5053273;28;21069;-53
2021/04/22 09:20:56;;;;;;;12.20;8.13;;;17.30;94.60;;;;;;5070641;28;20434;-53
2021/04/22 09:23:26;;;;;;;9.63;7.30;;;17.10;94.90;;;;;;5051058;28;20475;-52
2021/04/22 09:25:58;;;;;;;9.80;7.73;;;16.70;95.90;;;;;;5069850;28;20477;-53
2021/04/22 09:28:34;;;;;;;9.37;7.80;;;16.90;95.70;;;;;;5070431;28;20508;-52
2021/04/22 09:31:01;;;;;;;8.77;7.73;;;17.20;95.60;;;;;;5070542;28;20447;-52
2021/04/22 09:33:30;;;;;;;11.53;8.47;;;16.80;95.30;;;;;;5070815;28;20450;-52
2021/04/22 09:36:06;;;;;;;8.33;7.53;;;16.60;96.60;;;;;;5073331;28;20948;-52
2021/04/22 09:38:33;;;;;;;11.10;7.17;;;16.60;94.70;;;;;;5073783;28;20535;-52
2021/04/22 09:41:11;;;;;;;8.40;6.73;;;17.30;93.80;;;;;;5074042;28;20450;-52
2021/04/22 09:43:38;;;;;;;10.10;7.50;;;17.70;93.10;;;;;;5073659;28;20987;-53
2021/04/22 09:46:04;;;;;;;9.63;6.93;;;17.90;93.50;;;;;;5073336;28;20446;-52
2021/04/22 09:48:33;;;;;;;7.70;6.90;;;18.30;92.60;;;;;;5073810;28;20439;-52
2021/04/22 09:51:03;;;;;;;10.20;7.13;;;18.50;93.30;;;;;;5073604;28;20455;-52
2021/04/22 09:53:33;;;;;;;7.70;6.73;;;17.60;94.20;;;;;;5073725;28;20819;-53
2021/04/22 09:56:09;;;;;;;9.13;6.90;;;17.70;92.80;;;;;;5073995;28;20443;-54
2021/04/22 09:58:36;;;;;;;9.03;7.73;;;17.60;93.60;;;;;;5073698;28;20482;-52
2021/04/22 10:01:07;;;;;;;7.60;6.80;;;18.20;92.60;;;;;;5073431;28;20446;-52
2021/04/22 10:03:34;;;;;;;8.60;7.37;;;18.20;91.60;;;;;;5073552;28;20959;-53
2021/04/22 10:06:02;;;;;;;8.43;7.27;;;18.50;91.70;;;;;;5073477;28;20458;-53
2021/04/22 10:08:29;;;;;;;9.10;6.73;;;18.80;91.40;;;;;;5073433;28;20450;-52
2021/04/22 10:10:59;;;;;;;7.93;6.40;;;19.20;90.60;;;;;;5073343;28;20447;-53
2021/04/22 10:13:26;;;;;;;7.03;6.33;;;19.60;90.80;;;;;;5073210;28;20451;-52
2021/04/22 10:15:54;;;;;;;8.53;6.70;;;18.70;91.00;;;;;;5072403;28;20482;-53
2021/04/22 10:18:21;;;;;;;9.37;7.17;;;18.60;92.90;;;;;;5074298;28;20509;-52
2021/04/22 10:20:49;;;;;;;10.23;7.07;;;18.40;91.30;;;;;;5073760;28;20478;-52
2021/04/22 10:23:16;;;;;;;7.93;6.93;;;18.30;90.80;;;;;;5073348;28;20455;-52
2021/04/22 10:25:44;;;;;;;8.37;7.33;;;18.60;93.00;;;;;;5073136;28;20995;-53
2021/04/22 10:28:12;;;;;;;6.73;5.60;;;18.50;91.30;;;;;;5072778;28;20447;-52
2021/04/22 10:30:42;;;;;;;9.90;7.57;;;18.00;92.20;;;;;;5073321;28;20793;-53
2021/04/22 10:33:09;;;;;;;8.17;7.33;;;18.90;90.00;;;;;;5073484;28;20443;-53
2021/04/22 10:35:38;;;;;;;8.93;6.60;;;19.60;87.50;;;;;;5072727;28;20467;-53
2021/04/22 10:38:05;;;;;;;8.80;7.90;;;20.10;87.00;;;;;;5072481;28;20475;-53
2021/04/22 10:40:34;;;;;;;8.27;7.17;;;20.40;85.10;;;;;;5072484;28;20492;-53
2021/04/22 10:43:02;;;;;;;8.90;7.53;;;20.50;86.00;;;;;;5072417;28;20443;-53
2021/04/22 10:45:32;;;;;;;7.40;6.50;;;20.50;85.10;;;;;;5072558;28;20471;-52
2021/04/22 10:47:59;;;;;;;9.17;7.87;;;20.40;88.00;;;;;;5072093;28;20451;-52
2021/04/22 10:50:29;;;;;;;10.93;8.33;;;19.10;91.10;;;;;;5072696;28;20459;-52
2021/04/22 10:52:57;;;;;;;11.63;8.97;;;18.60;91.10;;;;;;5071781;28;20443;-52
2021/04/22 10:55:26;;;;;;;10.33;7.90;;;18.30;91.30;;;;;;5072426;28;20479;-51
2021/04/22 10:57:56;;;;;;;8.20;7.10;;;18.30;93.60;;;;;;5072362;28;20446;-52
2021/04/22 11:00:25;;;;;;;9.83;8.30;;;18.60;93.20;;;;;;5072583;28;20873;-52
2021/04/22 11:02:55;;;;;;;8.77;7.87;;;18.60;94.00;;;;;;5072677;28;20446;-52
2021/04/22 11:05:25;;;;;;;10.40;8.27;;;18.50;94.60;;;;;;5072547;28;20474;-51
2021/04/22 11:07:56;;;;;;;10.23;8.40;;;18.80;92.70;;;;;;5072488;28;20439;-52
2021/04/22 11:10:31;;;;;;;11.23;8.00;;;18.60;94.60;;;;;;5072416;28;20502;-52
2021/04/22 11:13:09;;;;;;;13.20;10.33;;;18.60;92.40;;;;;;5091739;28;20449;-52
2021/04/22 11:15:37;;;;;;;12.10;9.30;;;18.60;92.70;;;;;;5091357;28;20505;-52
2021/04/22 11:18:11;;;;;;;13.17;10.67;;;18.90;93.50;;;;;;5103929;22;20502;-50
2021/04/22 11:20:39;;;;;;;11.00;9.30;;;18.90;91.90;;;;;;5082185;28;20451;-50
2021/04/22 11:23:13;;;;;;;12.73;10.73;;;18.40;94.00;;;;;;5087399;28;20473;-51
2021/04/22 11:25:47;;;;;;;12.20;10.67;;;17.90;95.00;;;;;;5092205;28;20450;-51
2021/04/22 11:28:16;;;;;;;11.43;9.53;;;17.20;96.30;;;;;;5071796;28;20964;-51
2021/04/22 11:30:43;;;;;;;12.63;9.87;;;17.50;96.40;;;;;;5072194;28;20803;-50
2021/04/22 11:33:11;;;;;;;11.07;9.40;;;17.40;96.90;;;;;;5071962;28;20450;-49
2021/04/22 11:35:38;;;;;;;13.00;10.90;;;17.60;95.30;;;;;;5072401;28;20446;-53
2021/04/22 11:38:07;;;;;;;15.33;11.10;;;17.80;95.80;;;;;;5071446;28;20883;-52
2021/04/22 11:40:38;;;;;;;13.37;11.20;;;17.90;96.20;;;;;;5071523;28;20450;-53
2021/04/22 11:43:05;;;;;;;17.37;11.87;;;18.10;96.00;;;;;;5071924;28;20512;-52
2021/04/22 11:45:34;;;;;;;16.40;11.47;;;17.40;95.50;;;;;;5071807;28;20546;-51
2021/04/22 11:48:02;;;;;;;14.00;9.67;;;16.90;96.30;;;;;;5071588;28;20463;-51
2021/04/22 11:50:39;;;;;;;13.17;9.83;;;16.90;94.30;;;;;;5072613;28;20445;-51
2021/04/22 11:53:06;;;;;;;12.40;9.60;;;16.80;96.10;;;;;;5072264;28;21044;-53
2021/04/22 11:55:35;;;;;;;14.57;10.67;;;17.10;94.10;;;;;;5071847;28;20450;-52
2021/04/22 11:58:08;;;;;;;12.67;9.80;;;17.20;94.70;;;;;;5071168;28;20479;-51
2021/04/22 12:00:39;;;;;;;11.47;9.60;;;17.40;95.90;;;;;;5071630;28;20563;-52
2021/04/22 12:03:06;;;;;;;11.47;8.50;;;17.40;96.10;;;;;;5071428;28;20471;-52
2021/04/22 12:05:34;;;;;;;11.37;8.83;;;17.50;94.80;;;;;;5071733;28;20439;-52
2021/04/22 12:08:03;;;;;;;11.07;8.37;;;17.80;94.50;;;;;;5083030;28;20472;-52
2021/04/22 12:10:31;;;;;;;9.80;7.87;;;17.90;93.30;;;;;;5091884;28;20449;-52
2021/04/22 12:13:07;;;;;;;10.47;8.23;;;17.90;92.60;;;;;;5091749;28;20814;-52
2021/04/22 12:15:36;;;;;;;10.73;6.90;;;17.90;93.10;;;;;;5091230;28;20449;-52
2021/04/22 12:18:03;;;;;;;6.90;6.20;;;17.90;93.20;;;;;;5091262;28;20524;-52
2021/04/22 12:20:30;;;;;;;9.73;6.47;;;18.00;91.40;;;;;;5091529;28;20875;-51
2021/04/22 12:22:58;;;;;;;10.00;7.13;;;17.40;90.20;;;;;;5091729;28;20477;-52
2021/04/22 12:25:26;;;;;;;10.70;8.00;;;17.00;91.50;;;;;;5071652;28;20516;-51
2021/04/22 12:27:58;;;;;;;11.67;7.50;;;17.10;93.60;;;;;;5071088;28;20481;-50
2021/04/22 12:30:28;;;;;;;12.20;9.40;;;16.60;92.40;;;;;;5071559;28;20446;-53
2021/04/22 12:33:01;;;;;;;14.23;10.93;;;16.10;94.40;;;;;;5071154;28;21023;-52
2021/04/22 12:35:30;;;;;;;18.10;12.03;;;16.00;94.80;;;;;;5071349;28;21010;-52
2021/04/22 12:37:59;;;;;;;21.97;13.50;;;16.20;96.50;;;;;;5070845;28;20470;-51
2021/04/22 12:40:26;;;;;;;17.00;12.90;;;16.30;96.90;;;;;;5072551;28;20998;-52
2021/04/22 12:43:00;;;;;;;21.67;12.90;;;15.90;96.20;;;;;;5071119;28;20956;-53
2021/04/22 12:45:28;;;;;;;21.23;12.90;;;15.90;96.70;;;;;;5071171;28;20458;-54
2021/04/22 12:47:56;;;;;;;18.30;13.10;;;16.30;97.00;;;;;;5070841;28;20894;-49